Deerfield Beach, FL (33441)

6:02 AM EDT on July 28, 2016 (GMT -0400)
Shorewood ,DEERFIELD Beach,Fl | | Change Station

Elev 20 ft 26.30 °N, 80.10 °W | Updated 8 minutes ago

Mostly Cloudy
Mostly Cloudy
82.8 °F
Feels Like 90 °F
N
3.2
Wind Variable Wind from East

Today
High -- | Low -- °F
--% Chance of Precip.
Yesterday
High -- | Low -- °F
Precip. -- in
Pressure 30.04 in
Visibility 10.0 miles
Clouds Mostly Cloudy 2400 ft
Heat Index 90 °F
Dew Point 75 °F
Humidity 77%
Rainfall 0.00 in
Snow Depth Not available.
6:44 AM 8:09 PM
Waning Crescent, 33% visible
METAR KPMP 280953Z AUTO 09008KT 10SM BKN024 29/24 A3004 RMK AO2 SLP172 T02890239 $
Pressure 30.04 in
Visibility 10.0 miles
Clouds Mostly Cloudy 2400 ft
Heat Index 90 °F
Dew Point 75 °F
Humidity 77%
Rainfall 0.00 in
Snow Depth Not available.
6:44 AM 8:09 PM
Waning Crescent, 33% visible
METAR KPMP 280953Z AUTO 09008KT 10SM BKN024 29/24 A3004 RMK AO2 SLP172 T02890239 $

10-Day Weather Forecast

Almanac

Astronomy

Jul. 28, 2016 Rise Set
Actual Time
Civil Twilight
Nautical Twilight
Astronomical Twilight
Moon
Length of Visible Light
Length of Day
Tomorrow will be .
, % of the Moon is Illuminated

Today's Extremes

State Highs State Lows

Community

WunderPhotos

Upload Photos

1,928,070 photos uploaded!

WunderBlog® & News

Nearby

Air Quality

  Air Quality AQ Index Pollutant
Not available.

Snow Depth

Station Depth Elevation

Earthquake Activity

City Distance Mag. Time & Date
Minimum magnitude displayed is 2.5.

Coastal Water Temperatures

Place Temperature

Stations

Nearby Weather Stations

Station Location Temp. Windchill Dew Point Humidity Wind Precip. Elev Updated Type
                   

Watches & Warnings

There are currently no watches in effect.